sensor_id;sensor_type;location;lat;lon;timestamp;temperature;humidity
35491;DHT22;21605;52.068;20.806;2024-03-17T00:01:20;8.10;99.90
35491;DHT22;21605;52.068;20.806;2024-03-17T00:03:46;7.90;99.90
35491;DHT22;21605;52.068;20.806;2024-03-17T00:06:11;8.00;99.90
35491;DHT22;21605;52.068;20.806;2024-03-17T00:08:37;7.90;99.90
35491;DHT22;21605;52.068;20.806;2024-03-17T00:11:03;7.80;99.90
35491;DHT22;21605;52.068;20.806;2024-03-17T00:13:29;7.80;99.90
35491;DHT22;21605;52.068;20.806;2024-03-17T00:16:00;7.80;99.90
35491;DHT22;21605;52.068;20.806;2024-03-17T00:18:26;7.80;99.90
35491;DHT22;21605;52.068;20.806;2024-03-17T00:20:53;7.70;99.90
35491;DHT22;21605;52.068;20.806;2024-03-17T00:23:19;7.70;99.90
35491;DHT22;21605;52.068;20.806;2024-03-17T00:25:45;7.70;99.90
35491;DHT22;21605;52.068;20.806;2024-03-17T00:28:10;7.60;99.90
35491;DHT22;21605;52.068;20.806;2024-03-17T00:30:37;7.50;99.90
35491;DHT22;21605;52.068;20.806;2024-03-17T00:33:03;7.50;99.90
35491;DHT22;21605;52.068;20.806;2024-03-17T00:35:29;7.50;99.90
35491;DHT22;21605;52.068;20.806;2024-03-17T00:37:56;7.50;99.90
35491;DHT22;21605;52.068;20.806;2024-03-17T00:40:21;7.50;99.90
35491;DHT22;21605;52.068;20.806;2024-03-17T00:42:47;7.40;99.90
35491;DHT22;21605;52.068;20.806;2024-03-17T00:45:13;7.50;99.90
35491;DHT22;21605;52.068;20.806;2024-03-17T00:47:39;7.40;99.90
35491;DHT22;21605;52.068;20.806;2024-03-17T00:50:05;7.50;99.90
35491;DHT22;21605;52.068;20.806;2024-03-17T00:52:37;7.30;99.90
35491;DHT22;21605;52.068;20.806;2024-03-17T00:55:02;7.30;99.90
35491;DHT22;21605;52.068;20.806;2024-03-17T00:57:28;7.20;99.90
35491;DHT22;21605;52.068;20.806;2024-03-17T00:59:56;7.20;99.90
35491;DHT22;21605;52.068;20.806;2024-03-17T01:02:21;7.20;99.90
35491;DHT22;21605;52.068;20.806;2024-03-17T01:04:47;7.20;99.90
35491;DHT22;21605;52.068;20.806;2024-03-17T01:07:13;7.20;99.90
35491;DHT22;21605;52.068;20.806;2024-03-17T01:09:39;7.20;99.90
35491;DHT22;21605;52.068;20.806;2024-03-17T01:12:04;7.20;99.90
35491;DHT22;21605;52.068;20.806;2024-03-17T01:14:31;7.10;99.90
35491;DHT22;21605;52.068;20.806;2024-03-17T01:17:01;7.10;99.90
35491;DHT22;21605;52.068;20.806;2024-03-17T01:19:30;7.00;99.90
35491;DHT22;21605;52.068;20.806;2024-03-17T01:22:02;7.00;99.90
35491;DHT22;21605;52.068;20.806;2024-03-17T01:24:28;7.00;99.90
35491;DHT22;21605;52.068;20.806;2024-03-17T01:26:57;7.00;99.90
35491;DHT22;21605;52.068;20.806;2024-03-17T01:29:24;6.90;99.90
35491;DHT22;21605;52.068;20.806;2024-03-17T01:31:49;6.90;99.90
35491;DHT22;21605;52.068;20.806;2024-03-17T01:34:16;6.80;99.90
35491;DHT22;21605;52.068;20.806;2024-03-17T01:36:42;6.80;99.90
35491;DHT22;21605;52.068;20.806;2024-03-17T01:39:07;6.80;99.90
35491;DHT22;21605;52.068;20.806;2024-03-17T01:41:33;6.80;99.90
35491;DHT22;21605;52.068;20.806;2024-03-17T01:44:05;6.70;99.90
35491;DHT22;21605;52.068;20.806;2024-03-17T01:46:32;6.70;99.90
35491;DHT22;21605;52.068;20.806;2024-03-17T01:49:07;6.70;99.90
35491;DHT22;21605;52.068;20.806;2024-03-17T01:51:33;6.70;99.90
35491;DHT22;21605;52.068;20.806;2024-03-17T01:54:02;6.70;99.90
35491;DHT22;21605;52.068;20.806;2024-03-17T01:56:28;6.70;99.90
35491;DHT22;21605;52.068;20.806;2024-03-17T01:59:05;6.60;99.90
35491;DHT22;21605;52.068;20.806;2024-03-17T02:01:31;6.60;99.90
35491;DHT22;21605;52.068;20.806;2024-03-17T02:04:04;6.60;99.90
35491;DHT22;21605;52.068;20.806;2024-03-17T02:06:30;6.60;99.90
35491;DHT22;21605;52.068;20.806;2024-03-17T02:09:05;6.60;99.90
35491;DHT22;21605;52.068;20.806;2024-03-17T02:11:33;6.60;99.90
35491;DHT22;21605;52.068;20.806;2024-03-17T02:14:05;6.60;99.90
35491;DHT22;21605;52.068;20.806;2024-03-17T02:16:33;7.00;99.90
35491;DHT22;21605;52.068;20.806;2024-03-17T02:19:08;6.50;99.90
35491;DHT22;21605;52.068;20.806;2024-03-17T02:21:33;6.60;99.90
35491;DHT22;21605;52.068;20.806;2024-03-17T02:24:05;6.50;99.90
35491;DHT22;21605;52.068;20.806;2024-03-17T02:26:33;6.50;99.90
35491;DHT22;21605;52.068;20.806;2024-03-17T02:29:00;6.60;99.90
35491;DHT22;21605;52.068;20.806;2024-03-17T02:31:26;6.50;99.90
35491;DHT22;21605;52.068;20.806;2024-03-17T02:33:52;6.60;99.90
35491;DHT22;21605;52.068;20.806;2024-03-17T02:36:17;6.50;99.90
35491;DHT22;21605;52.068;20.806;2024-03-17T02:38:43;6.50;99.90
35491;DHT22;21605;52.068;20.806;2024-03-17T02:41:27;6.40;99.90
35491;DHT22;21605;52.068;20.806;2024-03-17T02:44:05;6.50;99.90
35491;DHT22;21605;52.068;20.806;2024-03-17T02:46:31;6.40;99.90
35491;DHT22;21605;52.068;20.806;2024-03-17T02:49:07;6.50;99.90
35491;DHT22;21605;52.068;20.806;2024-03-17T02:51:34;6.40;99.90
35491;DHT22;21605;52.068;20.806;2024-03-17T02:54:08;6.30;99.90
35491;DHT22;21605;52.068;20.806;2024-03-17T02:56:34;6.20;99.90
35491;DHT22;21605;52.068;20.806;2024-03-17T02:59:09;6.20;99.90
35491;DHT22;21605;52.068;20.806;2024-03-17T03:01:34;6.20;99.90
35491;DHT22;21605;52.068;20.806;2024-03-17T03:04:00;6.20;99.90
35491;DHT22;21605;52.068;20.806;2024-03-17T03:06:25;6.20;99.90
35491;DHT22;21605;52.068;20.806;2024-03-17T03:08:51;6.10;99.90
35491;DHT22;21605;52.068;20.806;2024-03-17T03:11:17;6.10;99.90
35491;DHT22;21605;52.068;20.806;2024-03-17T03:13:43;6.10;99.90
35491;DHT22;21605;52.068;20.806;2024-03-17T03:16:13;6.10;99.90
35491;DHT22;21605;52.068;20.806;2024-03-17T03:18:39;6.00;99.90
35491;DHT22;21605;52.068;20.806;2024-03-17T03:21:08;6.10;99.90
35491;DHT22;21605;52.068;20.806;2024-03-17T03:23:34;6.10;99.90
35491;DHT22;21605;52.068;20.806;2024-03-17T03:26:09;6.10;99.90
35491;DHT22;21605;52.068;20.806;2024-03-17T03:28:35;6.10;99.90
35491;DHT22;21605;52.068;20.806;2024-03-17T03:31:13;6.10;99.90
35491;DHT22;21605;52.068;20.806;2024-03-17T03:33:40;6.10;99.90
35491;DHT22;21605;52.068;20.806;2024-03-17T03:36:14;6.20;99.90
35491;DHT22;21605;52.068;20.806;2024-03-17T03:38:40;6.10;99.90
35491;DHT22;21605;52.068;20.806;2024-03-17T03:41:10;6.10;99.90
35491;DHT22;21605;52.068;20.806;2024-03-17T03:43:37;6.10;99.90
35491;DHT22;21605;52.068;20.806;2024-03-17T03:46:03;6.10;99.90
35491;DHT22;21605;52.068;20.806;2024-03-17T03:48:29;6.10;99.90
35491;DHT22;21605;52.068;20.806;2024-03-17T03:50:55;6.10;99.90
35491;DHT22;21605;52.068;20.806;2024-03-17T03:53:21;6.10;99.90
35491;DHT22;21605;52.068;20.806;2024-03-17T03:55:46;6.10;99.90
35491;DHT22;21605;52.068;20.806;2024-03-17T03:58:12;6.00;99.90
35491;DHT22;21605;52.068;20.806;2024-03-17T04:00:38;6.00;99.90
35491;DHT22;21605;52.068;20.806;2024-03-17T04:03:07;6.00;99.90
35491;DHT22;21605;52.068;20.806;2024-03-17T04:05:33;6.00;99.90
35491;DHT22;21605;52.068;20.806;2024-03-17T04:08:00;6.00;99.90
35491;DHT22;21605;52.068;20.806;2024-03-17T04:10:26;6.00;99.90
35491;DHT22;21605;52.068;20.806;2024-03-17T04:12:52;6.00;99.90
35491;DHT22;21605;52.068;20.806;2024-03-17T04:15:18;6.00;99.90
35491;DHT22;21605;52.068;20.806;2024-03-17T04:17:44;5.90;99.90
35491;DHT22;21605;52.068;20.806;2024-03-17T04:20:10;6.00;99.90
35491;DHT22;21605;52.068;20.806;2024-03-17T04:22:41;5.90;99.90
35491;DHT22;21605;52.068;20.806;2024-03-17T04:25:08;5.80;99.90
35491;DHT22;21605;52.068;20.806;2024-03-17T04:27:34;5.80;99.90
35491;DHT22;21605;52.068;20.806;2024-03-17T04:30:06;5.70;99.90
35491;DHT22;21605;52.068;20.806;2024-03-17T04:32:32;5.60;99.90
35491;DHT22;21605;52.068;20.806;2024-03-17T04:34:59;5.60;99.90
35491;DHT22;21605;52.068;20.806;2024-03-17T04:37:24;5.50;99.90
35491;DHT22;21605;52.068;20.806;2024-03-17T04:39:50;5.50;99.90
35491;DHT22;21605;52.068;20.806;2024-03-17T04:42:17;5.50;99.90
35491;DHT22;21605;52.068;20.806;2024-03-17T04:44:46;5.40;99.90
35491;DHT22;21605;52.068;20.806;2024-03-17T04:47:12;5.40;99.90
35491;DHT22;21605;52.068;20.806;2024-03-17T04:49:39;5.40;99.90
35491;DHT22;21605;52.068;20.806;2024-03-17T04:52:14;5.40;99.90
35491;DHT22;21605;52.068;20.806;2024-03-17T04:54:41;5.30;99.90
35491;DHT22;21605;52.068;20.806;2024-03-17T04:57:17;5.40;99.90
35491;DHT22;21605;52.068;20.806;2024-03-17T04:59:43;5.20;99.90
35491;DHT22;21605;52.068;20.806;2024-03-17T05:02:11;5.20;99.90
35491;DHT22;21605;52.068;20.806;2024-03-17T05:04:37;5.20;99.90
35491;DHT22;21605;52.068;20.806;2024-03-17T05:07:12;5.20;99.90
35491;DHT22;21605;52.068;20.806;2024-03-17T05:09:37;5.20;99.90
35491;DHT22;21605;52.068;20.806;2024-03-17T05:12:03;5.10;99.90
35491;DHT22;21605;52.068;20.806;2024-03-17T05:14:29;5.10;99.90
35491;DHT22;21605;52.068;20.806;2024-03-17T05:16:54;5.10;99.90
35491;DHT22;21605;52.068;20.806;2024-03-17T05:19:20;5.00;99.90
35491;DHT22;21605;52.068;20.806;2024-03-17T05:21:46;5.10;99.90
35491;DHT22;21605;52.068;20.806;2024-03-17T05:24:12;5.10;99.90
35491;DHT22;21605;52.068;20.806;2024-03-17T05:26:38;5.10;99.90
35491;DHT22;21605;52.068;20.806;2024-03-17T05:29:13;5.10;99.90
35491;DHT22;21605;52.068;20.806;2024-03-17T05:31:38;5.00;99.90
35491;DHT22;21605;52.068;20.806;2024-03-17T05:34:09;5.10;99.90
35491;DHT22;21605;52.068;20.806;2024-03-17T05:36:36;5.10;99.90
35491;DHT22;21605;52.068;20.806;2024-03-17T05:39:02;5.10;99.90
35491;DHT22;21605;52.068;20.806;2024-03-17T05:41:43;5.20;99.90
35491;DHT22;21605;52.068;20.806;2024-03-17T05:44:09;5.20;99.90
35491;DHT22;21605;52.068;20.806;2024-03-17T05:46:35;5.20;99.90
35491;DHT22;21605;52.068;20.806;2024-03-17T05:49:00;5.30;99.90
35491;DHT22;21605;52.068;20.806;2024-03-17T05:51:26;5.30;99.90
35491;DHT22;21605;52.068;20.806;2024-03-17T05:53:53;5.20;99.90
35491;DHT22;21605;52.068;20.806;2024-03-17T05:56:20;5.40;99.90
35491;DHT22;21605;52.068;20.806;2024-03-17T05:58:48;5.30;99.90
35491;DHT22;21605;52.068;20.806;2024-03-17T06:01:16;5.40;99.90
35491;DHT22;21605;52.068;20.806;2024-03-17T06:03:42;5.40;99.90
35491;DHT22;21605;52.068;20.806;2024-03-17T06:06:17;5.40;99.90
35491;DHT22;21605;52.068;20.806;2024-03-17T06:08:43;5.40;99.90
35491;DHT22;21605;52.068;20.806;2024-03-17T06:11:14;5.50;99.90
35491;DHT22;21605;52.068;20.806;2024-03-17T06:13:39;5.50;99.90
35491;DHT22;21605;52.068;20.806;2024-03-17T06:16:10;5.50;99.90
35491;DHT22;21605;52.068;20.806;2024-03-17T06:18:36;5.70;99.90
35491;DHT22;21605;52.068;20.806;2024-03-17T06:21:05;5.60;99.90
35491;DHT22;21605;52.068;20.806;2024-03-17T06:23:30;5.70;99.90
35491;DHT22;21605;52.068;20.806;2024-03-17T06:25:56;5.80;99.90
35491;DHT22;21605;52.068;20.806;2024-03-17T06:28:22;5.80;99.90
35491;DHT22;21605;52.068;20.806;2024-03-17T06:30:56;5.80;99.90
35491;DHT22;21605;52.068;20.806;2024-03-17T06:33:22;5.90;99.90
35491;DHT22;21605;52.068;20.806;2024-03-17T06:35:48;6.00;99.90
35491;DHT22;21605;52.068;20.806;2024-03-17T06:38:14;6.00;99.90
35491;DHT22;21605;52.068;20.806;2024-03-17T06:40:41;6.10;99.90
35491;DHT22;21605;52.068;20.806;2024-03-17T06:43:06;6.10;99.90
35491;DHT22;21605;52.068;20.806;2024-03-17T06:45:33;6.20;99.90
35491;DHT22;21605;52.068;20.806;2024-03-17T06:47:59;6.30;99.90
35491;DHT22;21605;52.068;20.806;2024-03-17T06:50:24;6.30;99.90
35491;DHT22;21605;52.068;20.806;2024-03-17T06:52:50;6.30;99.90
35491;DHT22;21605;52.068;20.806;2024-03-17T06:55:17;6.40;99.90
35491;DHT22;21605;52.068;20.806;2024-03-17T06:57:44;6.50;99.90
35491;DHT22;21605;52.068;20.806;2024-03-17T07:00:13;6.50;99.90
35491;DHT22;21605;52.068;20.806;2024-03-17T07:02:45;6.60;99.90
35491;DHT22;21605;52.068;20.806;2024-03-17T07:05:20;6.70;99.90
35491;DHT22;21605;52.068;20.806;2024-03-17T07:07:46;6.80;99.90
35491;DHT22;21605;52.068;20.806;2024-03-17T07:10:17;6.80;99.90
35491;DHT22;21605;52.068;20.806;2024-03-17T07:12:42;6.90;99.90
35491;DHT22;21605;52.068;20.806;2024-03-17T07:15:13;6.90;99.90
35491;DHT22;21605;52.068;20.806;2024-03-17T07:17:39;6.90;99.90
35491;DHT22;21605;52.068;20.806;2024-03-17T07:20:05;6.80;99.90
35491;DHT22;21605;52.068;20.806;2024-03-17T07:22:41;7.10;99.90
35491;DHT22;21605;52.068;20.806;2024-03-17T07:25:07;7.10;99.90
35491;DHT22;21605;52.068;20.806;2024-03-17T07:27:32;7.00;99.90
35491;DHT22;21605;52.068;20.806;2024-03-17T07:29:59;7.10;99.90
35491;DHT22;21605;52.068;20.806;2024-03-17T07:32:24;7.10;99.90
35491;DHT22;21605;52.068;20.806;2024-03-17T07:34:50;7.10;99.90
35491;DHT22;21605;52.068;20.806;2024-03-17T07:37:21;7.00;99.90
35491;DHT22;21605;52.068;20.806;2024-03-17T07:39:46;7.00;99.90
35491;DHT22;21605;52.068;20.806;2024-03-17T07:42:24;7.10;99.90
35491;DHT22;21605;52.068;20.806;2024-03-17T07:44:49;7.10;99.90
35491;DHT22;21605;52.068;20.806;2024-03-17T07:47:19;7.10;99.90
35491;DHT22;21605;52.068;20.806;2024-03-17T07:49:46;7.10;99.90
35491;DHT22;21605;52.068;20.806;2024-03-17T07:52:17;7.20;99.90
35491;DHT22;21605;52.068;20.806;2024-03-17T07:54:45;7.20;99.90
35491;DHT22;21605;52.068;20.806;2024-03-17T07:57:22;7.20;99.90
35491;DHT22;21605;52.068;20.806;2024-03-17T07:59:51;7.30;99.90
35491;DHT22;21605;52.068;20.806;2024-03-17T08:02:18;7.20;99.90
35491;DHT22;21605;52.068;20.806;2024-03-17T08:04:43;7.10;99.90
35491;DHT22;21605;52.068;20.806;2024-03-17T08:07:21;7.20;99.90
35491;DHT22;21605;52.068;20.806;2024-03-17T08:09:47;7.30;99.90
35491;DHT22;21605;52.068;20.806;2024-03-17T08:12:22;7.20;99.90
35491;DHT22;21605;52.068;20.806;2024-03-17T08:14:48;7.40;99.90
35491;DHT22;21605;52.068;20.806;2024-03-17T08:17:22;7.30;99.90
35491;DHT22;21605;52.068;20.806;2024-03-17T08:19:48;7.40;99.90
35491;DHT22;21605;52.068;20.806;2024-03-17T08:22:19;7.50;99.90
35491;DHT22;21605;52.068;20.806;2024-03-17T08:24:44;7.60;99.90
35491;DHT22;21605;52.068;20.806;2024-03-17T08:27:10;7.60;99.90
35491;DHT22;21605;52.068;20.806;2024-03-17T08:29:35;7.70;99.90
35491;DHT22;21605;52.068;20.806;2024-03-17T08:32:01;7.70;99.90
35491;DHT22;21605;52.068;20.806;2024-03-17T08:34:26;7.70;99.90
35491;DHT22;21605;52.068;20.806;2024-03-17T08:36:52;7.90;99.90
35491;DHT22;21605;52.068;20.806;2024-03-17T08:39:21;7.90;99.90
35491;DHT22;21605;52.068;20.806;2024-03-17T08:41:47;7.90;99.90
35491;DHT22;21605;52.068;20.806;2024-03-17T08:44:18;7.90;99.90
35491;DHT22;21605;52.068;20.806;2024-03-17T08:46:43;7.80;99.90
35491;DHT22;21605;52.068;20.806;2024-03-17T08:49:09;7.80;99.90
35491;DHT22;21605;52.068;20.806;2024-03-17T08:51:35;7.80;99.90
35491;DHT22;21605;52.068;20.806;2024-03-17T08:54:01;8.00;99.90
35491;DHT22;21605;52.068;20.806;2024-03-17T08:56:26;7.90;99.90
35491;DHT22;21605;52.068;20.806;2024-03-17T08:58:52;7.90;99.90
35491;DHT22;21605;52.068;20.806;2024-03-17T09:01:23;7.90;99.90
35491;DHT22;21605;52.068;20.806;2024-03-17T09:03:49;8.00;99.90
35491;DHT22;21605;52.068;20.806;2024-03-17T09:06:22;8.10;99.90
35491;DHT22;21605;52.068;20.806;2024-03-17T09:08:48;8.20;99.90
35491;DHT22;21605;52.068;20.806;2024-03-17T09:11:23;8.20;99.90
35491;DHT22;21605;52.068;20.806;2024-03-17T09:13:51;8.20;99.90
35491;DHT22;21605;52.068;20.806;2024-03-17T09:16:25;8.20;99.90
35491;DHT22;21605;52.068;20.806;2024-03-17T09:18:51;8.10;99.90
35491;DHT22;21605;52.068;20.806;2024-03-17T09:21:25;8.00;99.90
35491;DHT22;21605;52.068;20.806;2024-03-17T09:23:51;7.90;99.90
35491;DHT22;21605;52.068;20.806;2024-03-17T09:26:22;7.90;99.90
35491;DHT22;21605;52.068;20.806;2024-03-17T09:28:47;7.90;99.90
35491;DHT22;21605;52.068;20.806;2024-03-17T09:31:13;7.90;99.90
35491;DHT22;21605;52.068;20.806;2024-03-17T09:33:54;7.70;99.90
35491;DHT22;21605;52.068;20.806;2024-03-17T09:36:29;7.80;99.90
35491;DHT22;21605;52.068;20.806;2024-03-17T09:38:54;7.60;99.90
35491;DHT22;21605;52.068;20.806;2024-03-17T09:41:26;9.40;99.90
35491;DHT22;21605;52.068;20.806;2024-03-17T09:43:59;7.60;99.90
35491;DHT22;21605;52.068;20.806;2024-03-17T09:46:25;7.60;99.90
35491;DHT22;21605;52.068;20.806;2024-03-17T09:48:53;7.50;99.90
35491;DHT22;21605;52.068;20.806;2024-03-17T09:51:27;7.40;99.90
35491;DHT22;21605;52.068;20.806;2024-03-17T09:53:53;7.30;99.90
35491;DHT22;21605;52.068;20.806;2024-03-17T09:56:27;7.30;99.90
35491;DHT22;21605;52.068;20.806;2024-03-17T09:58:53;7.30;99.90
35491;DHT22;21605;52.068;20.806;2024-03-17T10:01:24;7.20;99.90
35491;DHT22;21605;52.068;20.806;2024-03-17T10:03:54;7.10;99.90
35491;DHT22;21605;52.068;20.806;2024-03-17T10:06:29;7.10;99.90
35491;DHT22;21605;52.068;20.806;2024-03-17T10:08:56;7.10;99.90
35491;DHT22;21605;52.068;20.806;2024-03-17T10:11:41;7.00;99.90
35491;DHT22;21605;52.068;20.806;2024-03-17T10:14:08;6.90;99.90
35491;DHT22;21605;52.068;20.806;2024-03-17T10:16:35;7.00;99.90
35491;DHT22;21605;52.068;20.806;2024-03-17T10:19:15;6.90;99.90
35491;DHT22;21605;52.068;20.806;2024-03-17T10:21:58;7.00;99.90
35491;DHT22;21605;52.068;20.806;2024-03-17T10:24:27;6.90;99.90
35491;DHT22;21605;52.068;20.806;2024-03-17T10:27:01;7.00;99.90
35491;DHT22;21605;52.068;20.806;2024-03-17T10:29:32;7.00;99.90
35491;DHT22;21605;52.068;20.806;2024-03-17T10:32:04;7.00;99.90
35491;DHT22;21605;52.068;20.806;2024-03-17T10:34:31;7.10;99.90
35491;DHT22;21605;52.068;20.806;2024-03-17T10:39:32;7.20;99.90
35491;DHT22;21605;52.068;20.806;2024-03-17T10:42:01;7.30;99.90
35491;DHT22;21605;52.068;20.806;2024-03-17T10:44:29;7.30;99.90
35491;DHT22;21605;52.068;20.806;2024-03-17T10:46:56;7.30;99.90
35491;DHT22;21605;52.068;20.806;2024-03-17T10:49:33;7.20;99.90
35491;DHT22;21605;52.068;20.806;2024-03-17T10:52:01;7.30;99.90
35491;DHT22;21605;52.068;20.806;2024-03-17T10:54:28;7.10;99.90
35491;DHT22;21605;52.068;20.806;2024-03-17T10:59:39;7.00;99.90
35491;DHT22;21605;52.068;20.806;2024-03-17T11:02:28;7.10;99.90
35491;DHT22;21605;52.068;20.806;2024-03-17T11:04:59;7.10;99.90
35491;DHT22;21605;52.068;20.806;2024-03-17T11:07:30;7.00;99.90
35491;DHT22;21605;52.068;20.806;2024-03-17T11:09:58;7.10;99.90
35491;DHT22;21605;52.068;20.806;2024-03-17T11:20:35;7.40;99.90
35491;DHT22;21605;52.068;20.806;2024-03-17T11:23:02;7.50;99.90
35491;DHT22;21605;52.068;20.806;2024-03-17T11:39:04;7.70;99.90
35491;DHT22;21605;52.068;20.806;2024-03-17T11:41:42;7.80;99.90
35491;DHT22;21605;52.068;20.806;2024-03-17T11:44:30;7.70;99.90
35491;DHT22;21605;52.068;20.806;2024-03-17T11:46:59;7.80;99.90
35491;DHT22;21605;52.068;20.806;2024-03-17T11:49:30;7.80;99.90
35491;DHT22;21605;52.068;20.806;2024-03-17T11:51:58;7.70;99.90
35491;DHT22;21605;52.068;20.806;2024-03-17T11:54:34;7.70;99.90
35491;DHT22;21605;52.068;20.806;2024-03-17T11:57:05;7.60;99.90
35491;DHT22;21605;52.068;20.806;2024-03-17T11:59:31;7.60;99.90
35491;DHT22;21605;52.068;20.806;2024-03-17T12:01:57;7.60;99.90
35491;DHT22;21605;52.068;20.806;2024-03-17T12:04:24;7.50;99.90
35491;DHT22;21605;52.068;20.806;2024-03-17T12:06:51;7.50;99.90
35491;DHT22;21605;52.068;20.806;2024-03-17T12:09:30;7.50;99.90
35491;DHT22;21605;52.068;20.806;2024-03-17T12:14:27;7.40;99.90
35491;DHT22;21605;52.068;20.806;2024-03-17T12:16:58;7.30;99.90
35491;DHT22;21605;52.068;20.806;2024-03-17T12:19:25;7.30;99.90
35491;DHT22;21605;52.068;20.806;2024-03-17T12:21:56;7.30;99.90
35491;DHT22;21605;52.068;20.806;2024-03-17T12:24:24;7.30;99.90
35491;DHT22;21605;52.068;20.806;2024-03-17T12:26:51;7.20;99.90
35491;DHT22;21605;52.068;20.806;2024-03-17T12:29:38;7.20;99.90
35491;DHT22;21605;52.068;20.806;2024-03-17T12:34:36;7.30;99.90
35491;DHT22;21605;52.068;20.806;2024-03-17T12:37:03;7.20;99.90
35491;DHT22;21605;52.068;20.806;2024-03-17T12:39:30;7.20;99.90
35491;DHT22;21605;52.068;20.806;2024-03-17T12:42:17;7.30;99.90
35491;DHT22;21605;52.068;20.806;2024-03-17T12:44:55;7.20;99.90
35491;DHT22;21605;52.068;20.806;2024-03-17T12:47:23;7.20;99.90
35491;DHT22;21605;52.068;20.806;2024-03-17T12:49:52;7.20;99.90
35491;DHT22;21605;52.068;20.806;2024-03-17T12:52:19;7.20;99.90
35491;DHT22;21605;52.068;20.806;2024-03-17T12:54:56;7.00;99.90
35491;DHT22;21605;52.068;20.806;2024-03-17T12:57:41;7.00;99.90
35491;DHT22;21605;52.068;20.806;2024-03-17T13:00:31;7.10;99.90
35491;DHT22;21605;52.068;20.806;2024-03-17T13:02:57;7.00;99.90
35491;DHT22;21605;52.068;20.806;2024-03-17T13:05:23;7.00;99.90
35491;DHT22;21605;52.068;20.806;2024-03-17T13:07:57;6.90;99.90
35491;DHT22;21605;52.068;20.806;2024-03-17T13:10:43;6.90;99.90
35491;DHT22;21605;52.068;20.806;2024-03-17T13:13:09;7.00;99.90
35491;DHT22;21605;52.068;20.806;2024-03-17T13:15:36;7.00;99.90
35491;DHT22;21605;52.068;20.806;2024-03-17T13:18:03;7.00;99.90
35491;DHT22;21605;52.068;20.806;2024-03-17T13:20:35;7.10;99.90
35491;DHT22;21605;52.068;20.806;2024-03-17T13:23:01;7.00;99.90
35491;DHT22;21605;52.068;20.806;2024-03-17T13:25:32;6.90;99.90
35491;DHT22;21605;52.068;20.806;2024-03-17T13:28:03;6.90;99.90
35491;DHT22;21605;52.068;20.806;2024-03-17T13:30:34;6.80;99.90
35491;DHT22;21605;52.068;20.806;2024-03-17T13:33:02;6.70;99.90
35491;DHT22;21605;52.068;20.806;2024-03-17T13:35:34;6.60;99.90
35491;DHT22;21605;52.068;20.806;2024-03-17T13:38:00;6.60;99.90
35491;DHT22;21605;52.068;20.806;2024-03-17T13:40:38;6.50;99.90
35491;DHT22;21605;52.068;20.806;2024-03-17T13:43:04;6.50;99.90
35491;DHT22;21605;52.068;20.806;2024-03-17T13:45:41;6.50;99.90
35491;DHT22;21605;52.068;20.806;2024-03-17T13:48:07;6.50;99.90
35491;DHT22;21605;52.068;20.806;2024-03-17T13:50:39;6.40;99.90
35491;DHT22;21605;52.068;20.806;2024-03-17T13:53:07;6.50;99.90
35491;DHT22;21605;52.068;20.806;2024-03-17T13:55:33;6.40;99.90
35491;DHT22;21605;52.068;20.806;2024-03-17T13:57:59;6.50;99.90
35491;DHT22;21605;52.068;20.806;2024-03-17T14:00:26;6.40;99.90
35491;DHT22;21605;52.068;20.806;2024-03-17T14:03:08;6.50;99.90
35491;DHT22;21605;52.068;20.806;2024-03-17T14:05:35;6.40;99.90
35491;DHT22;21605;52.068;20.806;2024-03-17T14:08:01;6.30;99.90
35491;DHT22;21605;52.068;20.806;2024-03-17T14:10:36;6.50;99.90
35491;DHT22;21605;52.068;20.806;2024-03-17T14:13:01;6.40;99.90
35491;DHT22;21605;52.068;20.806;2024-03-17T14:15:30;6.40;99.90
35491;DHT22;21605;52.068;20.806;2024-03-17T14:17:56;6.40;99.90
35491;DHT22;21605;52.068;20.806;2024-03-17T14:20:21;6.40;99.90
35491;DHT22;21605;52.068;20.806;2024-03-17T14:22:47;6.40;99.90
35491;DHT22;21605;52.068;20.806;2024-03-17T14:25:16;6.40;99.90
35491;DHT22;21605;52.068;20.806;2024-03-17T14:27:43;6.40;99.90
35491;DHT22;21605;52.068;20.806;2024-03-17T14:30:10;6.50;99.90
35491;DHT22;21605;52.068;20.806;2024-03-17T14:32:38;6.50;99.90
35491;DHT22;21605;52.068;20.806;2024-03-17T14:35:04;6.50;99.90
35491;DHT22;21605;52.068;20.806;2024-03-17T14:37:31;6.40;99.90
35491;DHT22;21605;52.068;20.806;2024-03-17T14:39:56;6.50;99.90
35491;DHT22;21605;52.068;20.806;2024-03-17T14:42:22;6.50;99.90
35491;DHT22;21605;52.068;20.806;2024-03-17T14:44:48;6.40;99.90
35491;DHT22;21605;52.068;20.806;2024-03-17T14:47:14;6.40;99.90
35491;DHT22;21605;52.068;20.806;2024-03-17T14:49:40;6.30;99.90
35491;DHT22;21605;52.068;20.806;2024-03-17T14:52:07;6.20;99.90
35491;DHT22;21605;52.068;20.806;2024-03-17T14:54:32;6.20;99.90
35491;DHT22;21605;52.068;20.806;2024-03-17T14:56:58;6.30;99.90
35491;DHT22;21605;52.068;20.806;2024-03-17T14:59:24;6.20;99.90
35491;DHT22;21605;52.068;20.806;2024-03-17T15:01:50;5.90;99.90
35491;DHT22;21605;52.068;20.806;2024-03-17T15:04:16;6.10;99.90
35491;DHT22;21605;52.068;20.806;2024-03-17T15:06:44;5.90;99.90
35491;DHT22;21605;52.068;20.806;2024-03-17T15:09:10;5.80;99.90
35491;DHT22;21605;52.068;20.806;2024-03-17T15:11:38;5.80;99.90
35491;DHT22;21605;52.068;20.806;2024-03-17T15:14:03;5.70;99.90
35491;DHT22;21605;52.068;20.806;2024-03-17T15:16:39;5.60;99.90
35491;DHT22;21605;52.068;20.806;2024-03-17T15:19:05;5.60;99.90
35491;DHT22;21605;52.068;20.806;2024-03-17T15:21:32;5.60;99.90
35491;DHT22;21605;52.068;20.806;2024-03-17T15:23:57;5.50;99.90
35491;DHT22;21605;52.068;20.806;2024-03-17T15:26:24;5.50;99.90
35491;DHT22;21605;52.068;20.806;2024-03-17T15:28:49;5.50;99.90
35491;DHT22;21605;52.068;20.806;2024-03-17T15:31:15;5.30;99.90
35491;DHT22;21605;52.068;20.806;2024-03-17T15:33:43;5.30;99.90
35491;DHT22;21605;52.068;20.806;2024-03-17T15:36:09;5.30;99.90
35491;DHT22;21605;52.068;20.806;2024-03-17T15:38:40;5.10;99.90
35491;DHT22;21605;52.068;20.806;2024-03-17T15:41:07;5.10;99.90
35491;DHT22;21605;52.068;20.806;2024-03-17T15:43:40;5.10;99.90
35491;DHT22;21605;52.068;20.806;2024-03-17T15:46:08;5.00;99.90
35491;DHT22;21605;52.068;20.806;2024-03-17T15:48:39;5.00;99.90
35491;DHT22;21605;52.068;20.806;2024-03-17T15:51:05;5.00;99.90
35491;DHT22;21605;52.068;20.806;2024-03-17T15:53:40;4.90;99.90
35491;DHT22;21605;52.068;20.806;2024-03-17T15:56:05;5.00;99.90
35491;DHT22;21605;52.068;20.806;2024-03-17T15:58:41;4.90;99.90
35491;DHT22;21605;52.068;20.806;2024-03-17T16:01:07;4.90;99.90
35491;DHT22;21605;52.068;20.806;2024-03-17T16:03:43;4.90;99.90
35491;DHT22;21605;52.068;20.806;2024-03-17T16:06:13;4.90;99.90
35491;DHT22;21605;52.068;20.806;2024-03-17T16:08:44;4.90;99.90
35491;DHT22;21605;52.068;20.806;2024-03-17T16:11:11;4.90;99.90